地図

経路データ

SID SEASON NUMBER BASIN SUBBASIN NAME ISO_TIME NATURE LAT LON WMO_WIND WMO_PRES WMO_AGENCY TRACK_TYPE DIST2LAND LANDFALL IFLAG USA_AGENCY USA_ATCF_ID USA_LAT USA_LON USA_RECORD USA_STATUS USA_WIND USA_PRES USA_SSHS USA_R34_NE USA_R34_SE USA_R34_SW USA_R34_NW USA_R50_NE USA_R50_SE USA_R50_SW USA_R50_NW USA_R64_NE USA_R64_SE USA_R64_SW USA_R64_NW USA_POCI USA_ROCI USA_RMW USA_EYE TOKYO_LAT TOKYO_LON TOKYO_GRADE TOKYO_WIND TOKYO_PRES TOKYO_R50_DIR TOKYO_R50_LONG TOKYO_R50_SHORT TOKYO_R30_DIR TOKYO_R30_LONG TOKYO_R30_SHORT TOKYO_LAND CMA_LAT CMA_LON CMA_CAT CMA_WIND CMA_PRES HKO_LAT HKO_LON HKO_CAT HKO_WIND HKO_PRES NEWDELHI_LAT NEWDELHI_LON NEWDELHI_GRADE NEWDELHI_WIND NEWDELHI_PRES NEWDELHI_CI NEWDELHI_DP NEWDELHI_POCI REUNION_LAT REUNION_LON REUNION_TYPE REUNION_WIND REUNION_PRES REUNION_TNUM REUNION_CI REUNION_RMW REUNION_R34_NE REUNION_R34_SE REUNION_R34_SW REUNION_R34_NW REUNION_R50_NE REUNION_R50_SE REUNION_R50_SW REUNION_R50_NW REUNION_R64_NE REUNION_R64_SE REUNION_R64_SW REUNION_R64_NW BOM_LAT BOM_LON BOM_TYPE BOM_WIND BOM_PRES BOM_TNUM BOM_CI BOM_RMW BOM_R34_NE BOM_R34_SE BOM_R34_SW BOM_R34_NW BOM_R50_NE BOM_R50_SE BOM_R50_SW BOM_R50_NW BOM_R64_NE BOM_R64_SE BOM_R64_SW BOM_R64_NW BOM_ROCI BOM_POCI BOM_EYE BOM_POS_METHOD BOM_PRES_METHOD NADI_LAT NADI_LON NADI_CAT NADI_WIND NADI_PRES WELLINGTON_LAT WELLINGTON_LON WELLINGTON_WIND WELLINGTON_PRES DS824_LAT DS824_LON DS824_STAGE DS824_WIND DS824_PRES TD9636_LAT TD9636_LON TD9636_STAGE TD9636_WIND TD9636_PRES TD9635_LAT TD9635_LON TD9635_WIND TD9635_PRES TD9635_ROCI NEUMANN_LAT NEUMANN_LON NEUMANN_CLASS NEUMANN_WIND NEUMANN_PRES MLC_LAT MLC_LON MLC_CLASS MLC_WIND MLC_PRES USA_GUST BOM_GUST BOM_GUST_PER REUNION_GUST REUNION_GUST_PER USA_SEAHGT USA_SEARAD_NE USA_SEARAD_SE USA_SEARAD_SW USA_SEARAD_NW STORM_SPEED STORM_DIR
1973212N33286 1973 75 NA NA ALFA 1973-07-30 12:00:00 SS 32.6000 -74.1000 25 1013 hurdat_atl main 322 305 O_____________ hurdat_atl AL061973 32.6000 -74.1000 SD 25 1013 -2 14 29
1973212N33286 1973 75 NA NA ALFA 1973-07-30 15:00:00 SS 33.2028 -73.7011 main 305 294 P_____________ AL061973 33.2028 -73.7011 SD 27 -2 14 29
1973212N33286 1973 75 NA NA ALFA 1973-07-30 18:00:00 SS 33.8000 -73.3000 30 hurdat_atl main 296 281 O_____________ hurdat_atl AL061973 33.8000 -73.3000 SD 30 -2 14 29
1973212N33286 1973 75 NA NA ALFA 1973-07-30 21:00:00 SS 34.3924 -72.8993 main 282 276 P_____________ AL061973 34.3924 -72.8993 SD 32 -2 14 29
1973212N33286 1973 75 NA NA ALFA 1973-07-31 00:00:00 SS 35.0000 -72.5000 35 hurdat_atl main 285 282 O_____________ hurdat_atl AL061973 35.0000 -72.5000 SS 35 -2 14 27
1973212N33286 1973 75 NA NA ALFA 1973-07-31 03:00:00 SS 35.6498 -72.1069 main 307 306 P_____________ AL061973 35.6498 -72.1069 SS 35 -2 15 27
1973212N33286 1973 75 NA NA ALFA 1973-07-31 06:00:00 SS 36.3000 -71.7000 35 hurdat_atl main 345 345 O_____________ hurdat_atl AL061973 36.3000 -71.7000 SS 35 -2 15 29
1973212N33286 1973 75 NA NA ALFA 1973-07-31 09:00:00 SS 36.9226 -71.2351 main 376 371 P_____________ AL061973 36.9226 -71.2351 SS 37 -2 14 31
1973212N33286 1973 75 NA NA ALFA 1973-07-31 12:00:00 SS 37.5000 -70.8000 40 hurdat_atl main 376 359 O_____________ hurdat_atl AL061973 37.5000 -70.8000 SS 40 -2 12 29
1973212N33286 1973 75 NA NA ALFA 1973-07-31 15:00:00 SS 38.0073 -70.4690 main 359 327 P_____________ AL061973 38.0073 -70.4690 SS 37 -2 11 25
1973212N33286 1973 75 NA NA ALFA 1973-07-31 18:00:00 SS 38.5000 -70.2000 35 1005 hurdat_atl main 327 284 O_____________ hurdat_atl AL061973 38.5000 -70.2000 SS 35 1005 -2 11 22
1973212N33286 1973 75 NA NA ALFA 1973-07-31 21:00:00 SS 39.0575 -69.9275 main 275 227 P_____________ AL061973 39.0575 -69.9275 SS 35 1005 -2 12 19
1973212N33286 1973 75 NA NA ALFA 1973-08-01 00:00:00 SS 39.6000 -69.7000 35 1006 hurdat_atl main 227 190 O_____________ hurdat_atl AL061973 39.6000 -69.7000 SS 35 1006 -2 10 17
1973212N33286 1973 75 NA NA ALFA 1973-08-01 03:00:00 SS 40.0574 -69.5343 main 182 142 P_____________ AL061973 40.0574 -69.5343 SS 32 1006 -2 9 14
1973212N33286 1973 75 NA NA ALFA 1973-08-01 06:00:00 SS 40.5000 -69.4000 30 hurdat_atl main 142 106 I_____________ hurdat_atl AL061973 40.5000 -69.4000 SD 30 1006 -2 9 13
1973212N33286 1973 75 NA NA ALFA 1973-08-01 09:00:00 SS 40.9775 -69.2497 main 102 77 P_____________ AL061973 40.9775 -69.2497 SD 27 1006 -2 10 13
1973212N33286 1973 75 NA NA ALFA 1973-08-01 12:00:00 SS 41.5000 -69.1000 25 1007 hurdat_atl main 77 74 O_____________ hurdat_atl AL061973 41.5000 -69.1000 SD 25 1007 -2 11 10
1973212N33286 1973 75 NA NA ALFA 1973-08-01 15:00:00 SS 42.0773 -68.9861 main 88 88 P_____________ AL061973 42.0773 -68.9861 SD 25 1007 -2 12 11
1973212N33286 1973 75 NA NA ALFA 1973-08-01 18:00:00 SS 42.7000 -68.8000 25 1008 hurdat_atl main 134 87 O_____________ hurdat_atl AL061973 42.7000 -68.8000 SD 25 1008 -2 13 17
1973212N33286 1973 75 NA NA ALFA 1973-08-01 21:00:00 SS 43.3456 -68.4528 main 87 34 P_____________ AL061973 43.3456 -68.4528 SD 25 1009 -2 14 24
1973212N33286 1973 75 NA NA ALFA 1973-08-02 00:00:00 SS 44.0000 -68.0000 25 1010 hurdat_atl main 34 O_____________ hurdat_atl AL061973 44.0000 -68.0000 SD 25 1010 -2 15 27

IBTrACS Databaseについて

本データベースは、米国NOAAが公開する1842年以降の世界の熱帯低気圧のベストトラックデータアーカイブInternational Best Track Archive for Climate Stewardship (IBTrACS)を、ウェブで閲覧しやすい形式に変換したものです。

最終更新日:2021-12-03